Terminal Aerodrome Forecast
Issued by NWS Albuquerque, NM

Home | Current Version | Previous Version | Text Only | Print | Product List | Glossary On
Versions: 1 2 3 4 5 6 7 8 9 10 11 12 13 14 15
000
FTUS45 KABQ 062344
TAFABQ
TAF
KABQ 062344Z 0700/0724 10015G25KT P6SM VCTS SCT080CB BKN150
      TEMPO 0700/0701 VRB25G35KT -TSRA BKN050CB OVC120
     FM070200 09020G30KT P6SM VCSH BKN070
     FM070800 09020G30KT P6SM -SHRA OVC030
     FM071200 10015G25KT P6SM SCT030 OVC070
     FM071700 14008KT P6SM SCT050 BKN100
     FM072300 19008KT P6SM VCSH SCT060 BKN120=

USA.gov is the U.S. government's official web portal to all federal, state and local government web resources and services.